createdAt,value
2018-04-10T00:01:46.050Z,11.77
2018-04-10T00:04:20.500Z,7.33
2018-04-10T00:06:54.975Z,13.73
2018-04-10T00:09:29.352Z,6.57
2018-04-10T00:12:03.694Z,5.97
2018-04-10T00:14:38.120Z,9.87
2018-04-10T00:17:12.456Z,10.67
2018-04-10T00:19:46.868Z,6.70
2018-04-10T00:22:21.361Z,6.93
2018-04-10T00:24:55.791Z,6.70
2018-04-10T00:27:30.190Z,6.70
2018-04-10T00:30:05.354Z,6.57
2018-04-10T00:32:39.721Z,6.37
2018-04-10T00:35:14.004Z,6.17
2018-04-10T00:37:48.434Z,6.90
2018-04-10T00:40:23.647Z,5.93
2018-04-10T00:42:58.100Z,5.73
2018-04-10T00:45:32.609Z,12.20
2018-04-10T00:48:06.929Z,12.20
2018-04-10T00:50:41.225Z,6.30
2018-04-10T00:53:27.642Z,6.10
2018-04-10T00:56:02.171Z,6.33
2018-04-10T00:58:36.806Z,5.90
2018-04-10T01:01:11.074Z,5.87
2018-04-10T01:03:45.406Z,6.30
2018-04-10T01:06:20.040Z,5.93
2018-04-10T01:08:54.574Z,5.87
2018-04-10T01:11:28.897Z,6.20
2018-04-10T01:14:03.908Z,5.87
2018-04-10T01:16:38.333Z,6.73
2018-04-10T01:19:12.765Z,5.90
2018-04-10T01:21:47.319Z,5.80
2018-04-10T01:24:21.672Z,6.63
2018-04-10T01:26:56.017Z,6.10
2018-04-10T01:29:31.153Z,5.77
2018-04-10T01:32:05.557Z,6.07
2018-04-10T01:34:39.968Z,5.67
2018-04-10T01:37:14.414Z,6.03
2018-04-10T01:39:48.851Z,6.07
2018-04-10T01:42:23.305Z,5.90
2018-04-10T01:44:57.675Z,5.63
2018-04-10T01:47:32.204Z,5.93
2018-04-10T01:50:06.504Z,5.80
2018-04-10T01:52:40.844Z,5.23
2018-04-10T01:55:15.201Z,6.13
2018-04-10T01:57:49.638Z,6.17
2018-04-10T02:00:24.223Z,5.67
2018-04-10T02:02:59.486Z,5.57
2018-04-10T02:05:33.905Z,5.47
2018-04-10T02:08:08.248Z,6.10
2018-04-10T02:10:42.601Z,5.30
2018-04-10T02:13:16.956Z,6.40
2018-04-10T02:15:51.449Z,5.57
2018-04-10T02:18:25.800Z,5.90
2018-04-10T02:21:00.169Z,6.07
2018-04-10T02:23:34.482Z,5.60
2018-04-10T02:26:08.906Z,5.60
2018-04-10T02:28:43.448Z,5.27
2018-04-10T02:31:17.991Z,4.93
2018-04-10T02:33:52.267Z,5.10
2018-04-10T02:36:26.690Z,5.10
2018-04-10T02:39:01.016Z,5.10
2018-04-10T02:41:35.535Z,5.27
2018-04-10T02:44:09.859Z,5.50
2018-04-10T02:46:45.088Z,5.37
2018-04-10T02:49:19.482Z,5.47
2018-04-10T02:51:53.757Z,5.03
2018-04-10T02:54:28.188Z,5.37
2018-04-10T02:57:02.581Z,5.20
2018-04-10T02:59:36.963Z,5.17
2018-04-10T03:02:11.412Z,5.23
2018-04-10T03:04:45.862Z,5.30
2018-04-10T03:07:20.181Z,5.23
2018-04-10T03:09:54.538Z,6.00
2018-04-10T03:12:29.028Z,5.30
2018-04-10T03:15:03.515Z,5.80
2018-04-10T03:17:37.816Z,5.40
2018-04-10T03:20:12.320Z,5.70
2018-04-10T03:22:46.690Z,5.23
2018-04-10T03:25:20.960Z,5.37
2018-04-10T03:27:55.341Z,5.30
2018-04-10T03:30:29.779Z,5.17
2018-04-10T03:33:04.496Z,5.20
2018-04-10T03:35:38.828Z,5.33
2018-04-10T03:38:13.131Z,5.80
2018-04-10T03:40:47.535Z,5.43
2018-04-10T03:43:21.855Z,5.60
2018-04-10T03:45:56.360Z,5.33
2018-04-10T03:48:30.716Z,4.90
2018-04-10T03:51:05.128Z,5.23
2018-04-10T03:53:39.551Z,5.53
2018-04-10T03:56:14.772Z,6.10
2018-04-10T03:58:49.181Z,5.13
2018-04-10T04:01:24.293Z,5.57
2018-04-10T04:03:58.576Z,5.80
2018-04-10T04:06:33.083Z,5.80
2018-04-10T04:09:07.494Z,6.23
2018-04-10T04:11:41.905Z,5.63
2018-04-10T04:14:16.240Z,5.47
2018-04-10T04:30:19.322Z,6.10
2018-04-10T04:32:54.365Z,5.67
2018-04-10T04:35:28.790Z,5.30
2018-04-10T04:38:03.134Z,5.80
2018-04-10T04:40:37.631Z,5.33
2018-04-10T04:43:11.920Z,5.40
2018-04-10T04:45:46.247Z,5.50
2018-04-10T04:48:20.682Z,5.67
2018-04-10T04:50:55.114Z,5.27
2018-04-10T04:53:29.408Z,5.70
2018-04-10T04:56:04.536Z,5.23
2018-04-10T04:58:38.848Z,5.20
2018-04-10T05:01:14.124Z,5.53
2018-04-10T05:03:48.524Z,4.93
2018-04-10T05:06:22.864Z,5.53
2018-04-10T05:08:57.963Z,5.50
2018-04-10T05:11:32.317Z,5.43
2018-04-10T05:14:06.701Z,5.40
2018-04-10T05:16:41.076Z,5.63
2018-04-10T05:19:15.372Z,5.47
2018-04-10T05:21:49.863Z,6.10
2018-04-10T05:24:25.149Z,5.33
2018-04-10T05:26:59.541Z,5.30
2018-04-10T05:29:33.893Z,5.77
2018-04-10T05:32:08.589Z,5.33
2018-04-10T05:34:42.868Z,5.40
2018-04-10T05:37:17.200Z,5.30
2018-04-10T05:39:51.648Z,5.43
2018-04-10T05:42:26.768Z,5.60
2018-04-10T05:45:01.076Z,5.20
2018-04-10T05:47:36.126Z,5.00
2018-04-10T05:50:10.502Z,5.63
2018-04-10T05:52:44.877Z,5.60
2018-04-10T05:55:19.890Z,5.30
2018-04-10T05:57:54.437Z,6.10
2018-04-10T06:00:28.751Z,9.20
2018-04-10T06:03:03.968Z,20.00
2018-04-10T06:05:39.212Z,20.87
2018-04-10T06:08:13.627Z,19.77
2018-04-10T06:10:48.885Z,20.83
2018-04-10T06:13:23.569Z,22.57
2018-04-10T06:15:57.852Z,22.77
2018-04-10T06:18:32.381Z,19.77
2018-04-10T06:21:06.972Z,18.97
2018-04-10T06:23:41.457Z,21.30
2018-04-10T06:26:16.054Z,22.20
2018-04-10T06:28:50.657Z,21.43
2018-04-10T06:31:25.105Z,19.97
2018-04-10T06:33:59.646Z,21.43
2018-04-10T06:36:34.514Z,22.20
2018-04-10T06:39:10.062Z,21.13
2018-04-10T06:41:44.805Z,21.50
2018-04-10T06:44:20.059Z,21.70
2018-04-10T06:46:54.594Z,21.10
2018-04-10T06:49:29.055Z,20.13
2018-04-10T06:52:03.719Z,20.20
2018-04-10T06:54:38.156Z,20.70
2018-04-10T06:57:12.745Z,19.77
2018-04-10T06:59:47.160Z,19.27
2018-04-10T07:02:21.834Z,19.90
2018-04-10T07:04:56.282Z,19.37
2018-04-10T07:07:30.878Z,19.17
2018-04-10T07:10:05.260Z,19.30
2018-04-10T07:12:39.678Z,18.00
2018-04-10T07:15:14.354Z,20.27
2018-04-10T07:17:49.032Z,15.23
2018-04-10T07:20:23.476Z,14.40
2018-04-10T07:22:58.081Z,18.60
2018-04-10T07:25:32.918Z,17.43
2018-04-10T07:28:07.433Z,15.70
2018-04-10T07:30:41.944Z,13.73
2018-04-10T07:33:16.312Z,17.90
2018-04-10T07:35:50.805Z,19.23
2018-04-10T07:38:25.118Z,12.87
2018-04-10T07:40:59.592Z,16.20
2018-04-10T07:43:34.091Z,15.07
2018-04-10T07:46:08.620Z,12.80
2018-04-10T07:48:43.011Z,12.77
2018-04-10T07:51:17.528Z,11.90
2018-04-10T07:53:52.068Z,18.00
2018-04-10T07:56:26.596Z,18.13
2018-04-10T07:59:01.020Z,11.50
2018-04-10T08:01:35.417Z,9.27
2018-04-10T08:04:09.888Z,11.00
2018-04-10T08:06:44.371Z,10.57
2018-04-10T08:09:18.761Z,20.23
2018-04-10T08:11:53.216Z,18.23
2018-04-10T08:14:27.654Z,9.60
2018-04-10T08:17:01.928Z,9.90
2018-04-10T08:19:36.461Z,6.47
2018-04-10T08:22:11.743Z,5.70
2018-04-10T08:24:46.351Z,6.53
2018-04-10T08:27:20.790Z,6.87
2018-04-10T08:29:55.088Z,8.00
2018-04-10T08:32:29.616Z,8.77
2018-04-10T08:35:03.948Z,5.53
2018-04-10T08:37:38.349Z,8.97
2018-04-10T08:40:12.668Z,17.53
2018-04-10T08:42:47.196Z,14.53
2018-04-10T08:45:22.548Z,11.60
2018-04-10T08:47:57.658Z,10.53
2018-04-10T08:50:32.812Z,9.50
2018-04-10T08:53:07.221Z,8.40
2018-04-10T08:55:41.504Z,8.30
2018-04-10T08:58:16.770Z,19.23
2018-04-10T09:00:51.188Z,12.20
2018-04-10T09:03:25.521Z,11.57
2018-04-10T09:05:59.848Z,9.87
2018-04-10T09:08:34.154Z,10.97
2018-04-10T09:11:08.684Z,6.47
2018-04-10T09:13:43.016Z,6.17
2018-04-10T09:16:17.542Z,9.30
2018-04-10T09:18:52.122Z,15.53
2018-04-10T09:21:26.474Z,6.77
2018-04-10T09:24:00.984Z,9.30
2018-04-10T09:26:35.500Z,10.37
2018-04-10T09:29:09.997Z,17.97
2018-04-10T09:31:45.049Z,8.87
2018-04-10T09:34:19.634Z,13.97
2018-04-10T09:36:53.946Z,10.30
2018-04-10T09:39:28.371Z,9.57
2018-04-10T09:42:02.701Z,7.77
2018-04-10T09:44:37.063Z,7.83
2018-04-10T09:47:11.682Z,5.40
2018-04-10T09:49:46.013Z,16.90
2018-04-10T09:52:20.402Z,21.67
2018-04-10T09:54:55.152Z,10.70
2018-04-10T09:57:31.057Z,15.67
2018-04-10T10:00:05.604Z,11.27
2018-04-10T10:02:40.053Z,7.37
2018-04-10T10:05:14.504Z,6.37
2018-04-10T10:07:48.808Z,5.47
2018-04-10T10:10:24.051Z,7.37
2018-04-10T10:12:58.379Z,9.60
2018-04-10T10:15:32.748Z,9.03
2018-04-10T10:18:07.068Z,9.30
2018-04-10T10:20:42.241Z,16.00
2018-04-10T10:23:16.652Z,9.07
2018-04-10T10:25:51.229Z,19.80
2018-04-10T10:28:26.549Z,13.10
2018-04-10T10:31:00.855Z,8.13
2018-04-10T10:33:35.330Z,11.00
2018-04-10T10:36:09.741Z,8.13
2018-04-10T10:38:44.160Z,10.77
2018-04-10T10:41:18.775Z,11.47
2018-04-10T10:43:53.593Z,10.73
2018-04-10T10:46:27.930Z,12.67
2018-04-10T10:49:02.337Z,6.50
2018-04-10T10:51:37.425Z,5.80
2018-04-10T10:54:12.563Z,5.17
2018-04-10T10:56:47.036Z,5.93
2018-04-10T10:59:21.355Z,7.03
2018-04-10T11:01:56.445Z,4.57
2018-04-10T11:04:30.948Z,10.70
2018-04-10T11:07:05.312Z,4.83
2018-04-10T11:09:39.770Z,4.43
2018-04-10T11:12:14.067Z,4.97
2018-04-10T11:14:48.339Z,5.37
2018-04-10T11:17:22.676Z,12.17
2018-04-10T11:19:57.071Z,6.37
2018-04-10T11:22:31.446Z,6.97
2018-04-10T11:25:06.673Z,5.70
2018-04-10T11:27:40.999Z,7.00
2018-04-10T11:30:16.143Z,5.73
2018-04-10T11:32:50.512Z,4.87
2018-04-10T11:35:24.864Z,6.87
2018-04-10T11:37:59.115Z,8.27
2018-04-10T11:40:33.505Z,16.30
2018-04-10T11:43:07.794Z,16.60
2018-04-10T11:45:42.137Z,14.77
2018-04-10T11:48:16.512Z,9.60
2018-04-10T11:50:51.788Z,5.80
2018-04-10T11:53:26.085Z,12.90
2018-04-10T11:56:01.344Z,17.00
2018-04-10T11:58:35.753Z,6.47
2018-04-10T12:01:10.279Z,11.20
2018-04-10T12:03:45.656Z,16.17
2018-04-10T12:06:19.927Z,20.43
2018-04-10T12:08:54.449Z,14.47
2018-04-10T12:11:28.909Z,20.00
2018-04-10T12:14:03.334Z,13.87
2018-04-10T12:16:37.649Z,19.50
2018-04-10T12:19:12.077Z,23.47
2018-04-10T12:21:46.459Z,23.50
2018-04-10T12:24:21.522Z,22.13
2018-04-10T12:26:55.827Z,25.60
2018-04-10T12:29:30.272Z,24.30
2018-04-10T12:32:04.570Z,22.47
2018-04-10T12:34:39.004Z,20.17
2018-04-10T12:37:13.343Z,23.73
2018-04-10T12:39:47.816Z,16.53
2018-04-10T12:42:22.253Z,18.80
2018-04-10T12:44:57.476Z,21.33
2018-04-10T12:47:32.019Z,21.27
2018-04-10T12:50:06.554Z,18.93
2018-04-10T12:52:41.697Z,17.33
2018-04-10T12:55:17.635Z,20.10
2018-04-10T12:57:52.004Z,20.53
2018-04-10T13:00:27.172Z,21.20
2018-04-10T13:03:01.536Z,19.63
2018-04-10T13:05:35.868Z,17.43
2018-04-10T13:08:10.218Z,17.40
2018-04-10T13:10:44.560Z,15.73
2018-04-10T13:13:19.645Z,19.73
2018-04-10T13:15:54.229Z,15.60
2018-04-10T13:18:28.529Z,20.30
2018-04-10T13:21:02.879Z,22.00
2018-04-10T13:23:37.211Z,24.30
2018-04-10T13:26:12.397Z,22.03
2018-04-10T13:28:46.655Z,23.97
2018-04-10T13:31:21.043Z,23.27
2018-04-10T13:33:55.319Z,28.20
2018-04-10T13:36:29.780Z,27.50
2018-04-10T13:39:04.102Z,28.50
2018-04-10T13:41:38.475Z,29.23
2018-04-10T13:44:12.925Z,26.30
2018-04-10T13:46:47.392Z,28.37
2018-04-10T13:49:21.884Z,26.50
2018-04-10T13:51:56.192Z,29.30
2018-04-10T13:54:32.055Z,28.17
2018-04-10T13:57:06.478Z,27.10
2018-04-10T13:59:42.442Z,25.57
2018-04-10T14:02:17.077Z,25.53
2018-04-10T14:04:51.391Z,25.37
2018-04-10T14:07:26.516Z,25.60
2018-04-10T14:10:00.824Z,29.03
2018-04-10T14:12:35.992Z,27.47
2018-04-10T14:15:10.353Z,28.03
2018-04-10T14:17:44.741Z,26.47
2018-04-10T14:20:19.811Z,24.97
2018-04-10T14:22:54.100Z,21.87
2018-04-10T14:25:28.606Z,25.83
2018-04-10T14:28:03.669Z,22.80
2018-04-10T14:30:37.988Z,27.97
2018-04-10T14:33:13.082Z,27.33
2018-04-10T14:35:47.538Z,26.93
2018-04-10T14:38:21.800Z,29.60
2018-04-10T14:40:56.252Z,26.67
2018-04-10T14:43:30.749Z,26.80
2018-04-10T14:46:05.111Z,20.00
2018-04-10T14:48:39.653Z,27.23
2018-04-10T14:51:14.871Z,30.73
2018-04-10T14:53:49.263Z,29.00
2018-04-10T14:56:23.810Z,29.07
2018-04-10T14:58:58.094Z,26.07
2018-04-10T15:01:32.769Z,20.30
2018-04-10T15:04:07.193Z,25.20
2018-04-10T15:06:41.709Z,24.13
2018-04-10T15:09:16.864Z,24.97
2018-04-10T15:11:51.240Z,30.60
2018-04-10T15:14:25.713Z,26.33
2018-04-10T15:17:00.105Z,29.30
2018-04-10T15:19:34.491Z,28.93
2018-04-10T15:22:08.845Z,32.40
2018-04-10T15:24:43.250Z,33.17
2018-04-10T15:27:17.797Z,32.47
2018-04-10T15:29:52.068Z,30.83
2018-04-10T15:32:26.726Z,29.90
2018-04-10T15:35:01.875Z,29.27
2018-04-10T15:37:36.195Z,27.03
2018-04-10T15:40:10.594Z,27.83
2018-04-10T15:42:45.025Z,25.67
2018-04-10T15:45:19.455Z,27.73
2018-04-10T15:47:53.885Z,27.20
2018-04-10T15:50:28.274Z,26.23
2018-04-10T15:53:02.839Z,26.00
2018-04-10T15:55:37.436Z,27.20
2018-04-10T15:58:11.937Z,27.03
2018-04-10T16:00:46.379Z,28.07
2018-04-10T16:03:21.107Z,28.73
2018-04-10T16:05:55.580Z,27.73
2018-04-10T16:08:29.925Z,30.20
2018-04-10T16:11:04.281Z,29.73
2018-04-10T16:13:38.664Z,29.10
2018-04-10T16:16:13.033Z,26.57
2018-04-10T16:18:47.500Z,26.13
2018-04-10T16:21:22.569Z,27.57
2018-04-10T16:23:56.912Z,27.67
2018-04-10T16:26:31.238Z,28.20
2018-04-10T16:29:05.650Z,27.23
2018-04-10T16:31:40.063Z,25.40
2018-04-10T16:34:14.327Z,27.40
2018-04-10T16:36:48.642Z,26.60
2018-04-10T16:39:22.935Z,26.33
2018-04-10T16:41:57.330Z,26.97
2018-04-10T16:44:31.754Z,26.70
2018-04-10T16:47:06.052Z,26.83
2018-04-10T16:49:40.333Z,25.10
2018-04-10T16:52:14.701Z,25.03
2018-04-10T16:54:49.113Z,25.83
2018-04-10T16:57:23.445Z,22.57
2018-04-10T16:59:57.924Z,23.17
2018-04-10T17:02:32.243Z,24.60
2018-04-10T17:05:06.559Z,23.40
2018-04-10T17:07:40.976Z,22.77
2018-04-10T17:10:15.332Z,24.43
2018-04-10T17:12:49.941Z,22.93
2018-04-10T17:15:24.249Z,23.47
2018-04-10T17:17:58.547Z,22.07
2018-04-10T17:20:33.006Z,23.27
2018-04-10T17:23:07.307Z,21.90
2018-04-10T17:25:41.786Z,22.40
2018-04-10T17:28:16.972Z,20.33
2018-04-10T17:30:52.342Z,21.50
2018-04-10T17:33:27.667Z,19.93
2018-04-10T17:36:02.080Z,21.03
2018-04-10T17:38:36.500Z,21.10
2018-04-10T17:41:10.836Z,20.93
2018-04-10T17:43:46.061Z,22.83
2018-04-10T17:46:20.470Z,20.07
2018-04-10T17:48:54.793Z,21.10
2018-04-10T17:51:29.227Z,20.57
2018-04-10T17:54:03.608Z,19.57
2018-04-10T17:56:38.091Z,21.03
2018-04-10T17:59:12.551Z,17.00
2018-04-10T18:01:47.037Z,20.30
2018-04-10T18:04:21.615Z,20.57
2018-04-10T18:06:55.978Z,21.57
2018-04-10T18:09:31.794Z,18.27
2018-04-10T18:12:06.335Z,22.93
2018-04-10T18:14:40.640Z,17.50
2018-04-10T18:17:15.132Z,24.03
2018-04-10T18:19:49.469Z,23.97
2018-04-10T18:22:24.025Z,23.67
2018-04-10T18:24:58.429Z,19.57
2018-04-10T18:27:32.902Z,21.53
2018-04-10T18:30:07.241Z,21.13
2018-04-10T18:32:41.904Z,15.33
2018-04-10T18:35:16.231Z,13.47
2018-04-10T18:37:50.739Z,13.77
2018-04-10T18:40:25.171Z,11.63
2018-04-10T18:42:59.503Z,11.27
2018-04-10T18:45:33.780Z,10.60
2018-04-10T18:48:08.216Z,10.43
2018-04-10T18:50:42.745Z,11.13
2018-04-10T18:53:17.636Z,13.00
2018-04-10T18:55:52.910Z,10.83
2018-04-10T18:58:27.352Z,17.87
2018-04-10T19:01:01.918Z,11.60
2018-04-10T19:03:38.682Z,9.93
2018-04-10T19:06:12.940Z,10.53
2018-04-10T19:08:48.145Z,10.37
2018-04-10T19:11:23.988Z,13.90
2018-04-10T19:13:58.398Z,12.50
2018-04-10T19:16:33.895Z,12.20
2018-04-10T19:19:08.981Z,10.90
2018-04-10T19:21:43.446Z,16.47
2018-04-10T19:24:18.687Z,11.57
2018-04-10T19:26:52.942Z,11.57
2018-04-10T19:29:27.736Z,17.80
2018-04-10T19:32:02.460Z,18.70
2018-04-10T19:34:36.892Z,12.87
2018-04-10T19:37:11.316Z,10.93
2018-04-10T19:39:45.640Z,10.57
2018-04-10T19:42:20.084Z,15.93
2018-04-10T19:44:54.520Z,13.47
2018-04-10T19:47:28.938Z,18.00
2018-04-10T19:50:03.345Z,11.90
2018-04-10T19:52:37.770Z,11.63
2018-04-10T19:55:13.704Z,9.97
2018-04-10T19:57:48.075Z,14.87
2018-04-10T20:00:22.560Z,15.30
2018-04-10T20:02:56.977Z,10.63
2018-04-10T20:05:32.211Z,10.37
2018-04-10T20:08:07.362Z,22.93
2018-04-10T20:10:41.945Z,14.50
2018-04-10T20:13:16.589Z,10.63
2018-04-10T20:15:50.982Z,19.27
2018-04-10T20:18:25.513Z,23.03
2018-04-10T20:21:00.682Z,21.53
2018-04-10T20:23:34.999Z,11.93
2018-04-10T20:26:09.411Z,21.57
2018-04-10T20:28:44.125Z,18.40
2018-04-10T20:31:18.672Z,20.83
2018-04-10T20:33:53.092Z,22.43
2018-04-10T20:36:27.837Z,21.50
2018-04-10T20:51:10.229Z,9.67
2018-04-10T20:53:44.745Z,10.70
2018-04-10T20:56:19.269Z,19.37
2018-04-10T20:58:55.185Z,15.43
2018-04-10T21:01:29.639Z,17.17
2018-04-10T21:04:05.638Z,16.87
2018-04-10T21:06:40.105Z,20.20
2018-04-10T21:09:15.206Z,11.00
2018-04-10T21:11:49.661Z,9.90
2018-04-10T21:14:24.021Z,16.40
2018-04-10T21:16:58.393Z,21.97
2018-04-10T21:19:34.956Z,16.73
2018-04-10T21:22:10.928Z,10.40
2018-04-10T21:24:47.082Z,9.90
2018-04-10T21:27:23.662Z,15.90
2018-04-10T21:29:59.743Z,12.37
2018-04-10T21:32:36.509Z,20.47
2018-04-10T21:35:12.525Z,15.70
2018-04-10T21:37:48.600Z,9.40
2018-04-10T21:40:24.176Z,11.97
2018-04-10T21:43:04.245Z,10.43
2018-04-10T21:45:38.568Z,8.33
2018-04-10T21:48:13.064Z,7.97
2018-04-10T21:50:47.517Z,7.93
2018-04-10T21:53:21.848Z,7.27
2018-04-10T21:55:56.329Z,9.60
2018-04-10T21:58:30.969Z,7.47
2018-04-10T22:01:05.270Z,7.17
2018-04-10T22:03:39.688Z,7.10
2018-04-10T22:06:14.229Z,7.47
2018-04-10T22:08:48.633Z,7.20
2018-04-10T22:11:23.146Z,7.43
2018-04-10T22:13:57.554Z,6.80
2018-04-10T22:16:31.988Z,7.20
2018-04-10T22:19:06.430Z,6.43
2018-04-10T22:21:40.929Z,6.97
2018-04-10T22:24:15.212Z,6.33
2018-04-10T22:26:49.692Z,6.80
2018-04-10T22:29:24.096Z,6.20
2018-04-10T22:31:58.622Z,6.63
2018-04-10T22:34:33.025Z,6.63
2018-04-10T22:37:07.336Z,6.73
2018-04-10T22:39:41.587Z,6.30
2018-04-10T22:42:16.070Z,7.03
2018-04-10T22:44:50.901Z,6.57
2018-04-10T22:47:25.336Z,6.30
2018-04-10T22:49:59.638Z,6.40
2018-04-10T22:52:33.953Z,6.20
2018-04-10T22:55:08.438Z,6.60
2018-04-10T22:57:43.188Z,6.47
2018-04-10T23:00:33.186Z,5.90
2018-04-10T23:03:07.421Z,6.37
2018-04-10T23:05:41.962Z,7.23
2018-04-10T23:08:16.305Z,5.77
2018-04-10T23:10:50.720Z,5.80
2018-04-10T23:13:25.600Z,6.77
2018-04-10T23:18:39.057Z,6.10
2018-04-10T23:21:13.901Z,5.77
2018-04-10T23:23:48.283Z,5.67
2018-04-10T23:26:23.352Z,5.80
2018-04-10T23:28:57.722Z,5.63
2018-04-10T23:31:32.324Z,5.93
2018-04-10T23:34:06.580Z,5.67
2018-04-10T23:36:41.052Z,6.03
2018-04-10T23:39:16.185Z,5.53
2018-04-10T23:41:50.573Z,5.63
2018-04-10T23:44:24.924Z,6.20
2018-04-10T23:46:59.976Z,5.87
2018-04-10T23:49:34.284Z,5.00
2018-04-10T23:52:08.645Z,5.30
2018-04-10T23:54:43.854Z,9.80
2018-04-10T23:57:18.357Z,5.93
2018-04-10T23:59:52.912Z,5.33
